sensor_id;sensor_type;location;lat;lon;timestamp;P1;durP1;ratioP1;P2;durP2;ratioP2
60014;SDS011;45867;52.480;6.056;2022-07-09T00:01:56;12.57;;;5.30;;
60014;SDS011;45867;52.480;6.056;2022-07-09T00:04:22;10.18;;;5.20;;
60014;SDS011;45867;52.480;6.056;2022-07-09T00:06:47;13.35;;;6.30;;
60014;SDS011;45867;52.480;6.056;2022-07-09T00:09:12;12.38;;;4.50;;
60014;SDS011;45867;52.480;6.056;2022-07-09T00:11:38;10.13;;;4.80;;
60014;SDS011;45867;52.480;6.056;2022-07-09T00:14:03;15.02;;;5.32;;
60014;SDS011;45867;52.480;6.056;2022-07-09T00:16:28;18.05;;;6.25;;
60014;SDS011;45867;52.480;6.056;2022-07-09T00:18:54;15.98;;;5.22;;
60014;SDS011;45867;52.480;6.056;2022-07-09T00:21:19;14.20;;;5.30;;
60014;SDS011;45867;52.480;6.056;2022-07-09T00:23:44;10.32;;;5.10;;
60014;SDS011;45867;52.480;6.056;2022-07-09T00:26:10;14.68;;;5.00;;
60014;SDS011;45867;52.480;6.056;2022-07-09T00:28:35;9.82;;;5.03;;
60014;SDS011;45867;52.480;6.056;2022-07-09T00:31:00;11.48;;;4.80;;
60014;SDS011;45867;52.480;6.056;2022-07-09T00:33:25;9.13;;;4.30;;
60014;SDS011;45867;52.480;6.056;2022-07-09T00:35:51;8.82;;;4.03;;
60014;SDS011;45867;52.480;6.056;2022-07-09T00:38:16;10.80;;;4.85;;
60014;SDS011;45867;52.480;6.056;2022-07-09T00:40:42;10.43;;;4.40;;
60014;SDS011;45867;52.480;6.056;2022-07-09T00:43:14;10.27;;;4.22;;
60014;SDS011;45867;52.480;6.056;2022-07-09T00:45:40;7.38;;;4.00;;
60014;SDS011;45867;52.480;6.056;2022-07-09T00:48:05;9.13;;;4.90;;
60014;SDS011;45867;52.480;6.056;2022-07-09T00:50:30;10.43;;;4.78;;
60014;SDS011;45867;52.480;6.056;2022-07-09T00:52:57;14.45;;;5.28;;
60014;SDS011;45867;52.480;6.056;2022-07-09T00:55:22;7.85;;;4.18;;
60014;SDS011;45867;52.480;6.056;2022-07-09T00:57:47;11.73;;;4.93;;
60014;SDS011;45867;52.480;6.056;2022-07-09T01:00:13;9.30;;;4.88;;
60014;SDS011;45867;52.480;6.056;2022-07-09T01:02:39;11.43;;;4.50;;
60014;SDS011;45867;52.480;6.056;2022-07-09T01:05:05;7.03;;;4.35;;
60014;SDS011;45867;52.480;6.056;2022-07-09T01:07:30;9.23;;;4.22;;
60014;SDS011;45867;52.480;6.056;2022-07-09T01:09:56;11.07;;;4.70;;
60014;SDS011;45867;52.480;6.056;2022-07-09T01:12:21;11.77;;;4.93;;
60014;SDS011;45867;52.480;6.056;2022-07-09T01:14:46;10.63;;;5.20;;
60014;SDS011;45867;52.480;6.056;2022-07-09T01:17:11;11.60;;;5.00;;
60014;SDS011;45867;52.480;6.056;2022-07-09T01:19:37;13.23;;;4.85;;
60014;SDS011;45867;52.480;6.056;2022-07-09T01:22:02;11.52;;;4.95;;
60014;SDS011;45867;52.480;6.056;2022-07-09T01:24:27;7.93;;;4.88;;
60014;SDS011;45867;52.480;6.056;2022-07-09T01:26:53;10.02;;;4.85;;
60014;SDS011;45867;52.480;6.056;2022-07-09T01:29:19;12.82;;;5.35;;
60014;SDS011;45867;52.480;6.056;2022-07-09T01:31:44;13.45;;;4.63;;
60014;SDS011;45867;52.480;6.056;2022-07-09T01:34:10;12.10;;;5.30;;
60014;SDS011;45867;52.480;6.056;2022-07-09T01:36:35;13.93;;;5.80;;
60014;SDS011;45867;52.480;6.056;2022-07-09T01:39:00;14.35;;;5.72;;
60014;SDS011;45867;52.480;6.056;2022-07-09T01:41:26;19.02;;;6.35;;
60014;SDS011;45867;52.480;6.056;2022-07-09T01:43:51;14.38;;;6.25;;
60014;SDS011;45867;52.480;6.056;2022-07-09T01:46:16;17.20;;;5.78;;
60014;SDS011;45867;52.480;6.056;2022-07-09T01:48:42;17.80;;;5.57;;
60014;SDS011;45867;52.480;6.056;2022-07-09T01:51:11;9.23;;;4.72;;
60014;SDS011;45867;52.480;6.056;2022-07-09T01:53:37;9.90;;;4.82;;
60014;SDS011;45867;52.480;6.056;2022-07-09T01:56:06;15.10;;;5.90;;
60014;SDS011;45867;52.480;6.056;2022-07-09T01:58:32;14.93;;;5.93;;
60014;SDS011;45867;52.480;6.056;2022-07-09T02:00:57;13.10;;;6.07;;
60014;SDS011;45867;52.480;6.056;2022-07-09T02:03:22;15.00;;;6.13;;
60014;SDS011;45867;52.480;6.056;2022-07-09T02:05:48;16.65;;;5.55;;
60014;SDS011;45867;52.480;6.056;2022-07-09T02:08:13;13.65;;;5.93;;
60014;SDS011;45867;52.480;6.056;2022-07-09T02:10:39;14.30;;;6.10;;
60014;SDS011;45867;52.480;6.056;2022-07-09T02:13:04;17.00;;;6.35;;
60014;SDS011;45867;52.480;6.056;2022-07-09T02:15:29;10.70;;;5.70;;
60014;SDS011;45867;52.480;6.056;2022-07-09T02:17:54;15.65;;;6.32;;
60014;SDS011;45867;52.480;6.056;2022-07-09T02:20:20;16.33;;;6.38;;
60014;SDS011;45867;52.480;6.056;2022-07-09T02:22:46;11.60;;;5.90;;
60014;SDS011;45867;52.480;6.056;2022-07-09T02:25:11;17.75;;;6.05;;
60014;SDS011;45867;52.480;6.056;2022-07-09T02:27:37;14.18;;;6.38;;
60014;SDS011;45867;52.480;6.056;2022-07-09T02:30:02;12.07;;;6.40;;
60014;SDS011;45867;52.480;6.056;2022-07-09T02:32:28;11.57;;;6.47;;
60014;SDS011;45867;52.480;6.056;2022-07-09T02:34:53;12.57;;;6.57;;
60014;SDS011;45867;52.480;6.056;2022-07-09T02:37:19;14.95;;;6.05;;
60014;SDS011;45867;52.480;6.056;2022-07-09T02:39:44;13.15;;;6.53;;
60014;SDS011;45867;52.480;6.056;2022-07-09T02:42:10;14.35;;;6.60;;
60014;SDS011;45867;52.480;6.056;2022-07-09T02:44:35;15.93;;;6.82;;
60014;SDS011;45867;52.480;6.056;2022-07-09T02:47:03;14.52;;;6.38;;
60014;SDS011;45867;52.480;6.056;2022-07-09T02:49:29;17.27;;;7.13;;
60014;SDS011;45867;52.480;6.056;2022-07-09T02:51:54;13.60;;;6.15;;
60014;SDS011;45867;52.480;6.056;2022-07-09T02:54:22;14.18;;;6.32;;
60014;SDS011;45867;52.480;6.056;2022-07-09T02:56:48;13.98;;;6.28;;
60014;SDS011;45867;52.480;6.056;2022-07-09T02:59:13;18.85;;;7.15;;
60014;SDS011;45867;52.480;6.056;2022-07-09T03:01:38;16.45;;;6.80;;
60014;SDS011;45867;52.480;6.056;2022-07-09T03:04:04;13.18;;;6.53;;
60014;SDS011;45867;52.480;6.056;2022-07-09T03:06:33;13.35;;;6.20;;
60014;SDS011;45867;52.480;6.056;2022-07-09T03:08:58;16.10;;;6.30;;
60014;SDS011;45867;52.480;6.056;2022-07-09T03:11:23;11.35;;;6.45;;
60014;SDS011;45867;52.480;6.056;2022-07-09T03:13:49;14.57;;;6.63;;
60014;SDS011;45867;52.480;6.056;2022-07-09T03:16:14;17.00;;;6.90;;
60014;SDS011;45867;52.480;6.056;2022-07-09T03:18:39;12.50;;;6.80;;
60014;SDS011;45867;52.480;6.056;2022-07-09T03:21:05;10.70;;;5.88;;
60014;SDS011;45867;52.480;6.056;2022-07-09T03:23:30;14.23;;;6.60;;
60014;SDS011;45867;52.480;6.056;2022-07-09T03:25:55;16.98;;;6.93;;
60014;SDS011;45867;52.480;6.056;2022-07-09T03:28:21;14.10;;;7.40;;
60014;SDS011;45867;52.480;6.056;2022-07-09T03:30:46;14.95;;;7.07;;
60014;SDS011;45867;52.480;6.056;2022-07-09T03:33:11;16.23;;;7.47;;
60014;SDS011;45867;52.480;6.056;2022-07-09T03:35:37;16.88;;;7.45;;
60014;SDS011;45867;52.480;6.056;2022-07-09T03:38:03;16.45;;;7.60;;
60014;SDS011;45867;52.480;6.056;2022-07-09T03:40:29;11.52;;;7.30;;
60014;SDS011;45867;52.480;6.056;2022-07-09T03:42:55;15.95;;;7.60;;
60014;SDS011;45867;52.480;6.056;2022-07-09T03:45:20;13.52;;;7.10;;
60014;SDS011;45867;52.480;6.056;2022-07-09T03:47:45;15.03;;;7.20;;
60014;SDS011;45867;52.480;6.056;2022-07-09T03:50:13;13.48;;;7.15;;
60014;SDS011;45867;52.480;6.056;2022-07-09T03:52:39;12.63;;;6.82;;
60014;SDS011;45867;52.480;6.056;2022-07-09T03:55:04;13.25;;;7.25;;
60014;SDS011;45867;52.480;6.056;2022-07-09T03:57:29;13.60;;;7.15;;
60014;SDS011;45867;52.480;6.056;2022-07-09T03:59:55;15.80;;;7.03;;
60014;SDS011;45867;52.480;6.056;2022-07-09T04:02:20;15.98;;;6.53;;
60014;SDS011;45867;52.480;6.056;2022-07-09T04:04:45;13.38;;;6.80;;
60014;SDS011;45867;52.480;6.056;2022-07-09T04:07:10;13.73;;;6.90;;
60014;SDS011;45867;52.480;6.056;2022-07-09T04:09:36;15.68;;;7.22;;
60014;SDS011;45867;52.480;6.056;2022-07-09T04:12:01;19.13;;;7.22;;
60014;SDS011;45867;52.480;6.056;2022-07-09T04:14:27;16.80;;;7.30;;
60014;SDS011;45867;52.480;6.056;2022-07-09T04:16:52;13.25;;;6.65;;
60014;SDS011;45867;52.480;6.056;2022-07-09T04:19:17;17.13;;;6.70;;
60014;SDS011;45867;52.480;6.056;2022-07-09T04:21:43;13.60;;;6.68;;
60014;SDS011;45867;52.480;6.056;2022-07-09T04:24:08;16.35;;;7.03;;
60014;SDS011;45867;52.480;6.056;2022-07-09T04:26:33;12.88;;;7.00;;
60014;SDS011;45867;52.480;6.056;2022-07-09T04:28:58;15.00;;;6.75;;
60014;SDS011;45867;52.480;6.056;2022-07-09T04:31:24;12.90;;;7.18;;
60014;SDS011;45867;52.480;6.056;2022-07-09T04:33:49;17.42;;;6.60;;
60014;SDS011;45867;52.480;6.056;2022-07-09T04:36:15;11.10;;;6.50;;
60014;SDS011;45867;52.480;6.056;2022-07-09T04:38:43;17.17;;;6.75;;
60014;SDS011;45867;52.480;6.056;2022-07-09T04:41:08;15.55;;;7.00;;
60014;SDS011;45867;52.480;6.056;2022-07-09T04:43:34;12.82;;;7.10;;
60014;SDS011;45867;52.480;6.056;2022-07-09T04:45:59;15.00;;;7.30;;
60014;SDS011;45867;52.480;6.056;2022-07-09T04:48:27;24.42;;;7.30;;
60014;SDS011;45867;52.480;6.056;2022-07-09T04:50:53;11.93;;;6.25;;
60014;SDS011;45867;52.480;6.056;2022-07-09T04:53:20;16.15;;;7.15;;
60014;SDS011;45867;52.480;6.056;2022-07-09T04:55:46;14.50;;;7.13;;
60014;SDS011;45867;52.480;6.056;2022-07-09T04:58:11;11.63;;;6.82;;
60014;SDS011;45867;52.480;6.056;2022-07-09T05:00:36;14.93;;;6.80;;
60014;SDS011;45867;52.480;6.056;2022-07-09T05:03:02;18.75;;;7.25;;
60014;SDS011;45867;52.480;6.056;2022-07-09T05:05:27;17.40;;;6.35;;
60014;SDS011;45867;52.480;6.056;2022-07-09T05:07:53;15.30;;;6.75;;
60014;SDS011;45867;52.480;6.056;2022-07-09T05:10:18;16.60;;;6.40;;
60014;SDS011;45867;52.480;6.056;2022-07-09T05:12:44;12.20;;;6.53;;
60014;SDS011;45867;52.480;6.056;2022-07-09T05:15:10;12.98;;;6.60;;
60014;SDS011;45867;52.480;6.056;2022-07-09T05:17:38;13.43;;;6.20;;
60014;SDS011;45867;52.480;6.056;2022-07-09T05:20:04;12.30;;;6.20;;
60014;SDS011;45867;52.480;6.056;2022-07-09T05:22:30;12.38;;;6.28;;
60014;SDS011;45867;52.480;6.056;2022-07-09T05:24:56;11.52;;;6.05;;
60014;SDS011;45867;52.480;6.056;2022-07-09T05:27:21;10.93;;;5.68;;
60014;SDS011;45867;52.480;6.056;2022-07-09T05:29:47;13.55;;;5.60;;
60014;SDS011;45867;52.480;6.056;2022-07-09T05:32:12;9.25;;;5.22;;
60014;SDS011;45867;52.480;6.056;2022-07-09T05:34:37;8.68;;;5.00;;
60014;SDS011;45867;52.480;6.056;2022-07-09T05:37:03;13.80;;;5.33;;
60014;SDS011;45867;52.480;6.056;2022-07-09T05:39:28;10.52;;;5.20;;
60014;SDS011;45867;52.480;6.056;2022-07-09T05:41:53;10.10;;;5.07;;
60014;SDS011;45867;52.480;6.056;2022-07-09T05:44:18;9.02;;;4.40;;
60014;SDS011;45867;52.480;6.056;2022-07-09T05:46:44;11.85;;;4.85;;
60014;SDS011;45867;52.480;6.056;2022-07-09T05:49:12;10.38;;;4.40;;
60014;SDS011;45867;52.480;6.056;2022-07-09T05:51:37;8.50;;;4.22;;
60014;SDS011;45867;52.480;6.056;2022-07-09T05:54:03;8.25;;;4.43;;
60014;SDS011;45867;52.480;6.056;2022-07-09T05:56:28;7.60;;;4.28;;
60014;SDS011;45867;52.480;6.056;2022-07-09T05:58:54;10.63;;;3.85;;
60014;SDS011;45867;52.480;6.056;2022-07-09T06:01:19;11.07;;;4.55;;
60014;SDS011;45867;52.480;6.056;2022-07-09T06:03:44;10.50;;;4.90;;
60014;SDS011;45867;52.480;6.056;2022-07-09T06:06:12;9.82;;;4.72;;
60014;SDS011;45867;52.480;6.056;2022-07-09T06:08:41;9.02;;;4.00;;
60014;SDS011;45867;52.480;6.056;2022-07-09T06:11:06;7.97;;;4.30;;
60014;SDS011;45867;52.480;6.056;2022-07-09T06:13:35;7.43;;;4.40;;
60014;SDS011;45867;52.480;6.056;2022-07-09T06:16:00;10.07;;;4.60;;
60014;SDS011;45867;52.480;6.056;2022-07-09T06:18:26;11.40;;;4.45;;
60014;SDS011;45867;52.480;6.056;2022-07-09T06:20:52;9.30;;;4.03;;
60014;SDS011;45867;52.480;6.056;2022-07-09T06:23:17;9.93;;;3.95;;
60014;SDS011;45867;52.480;6.056;2022-07-09T06:25:43;8.10;;;3.45;;
60014;SDS011;45867;52.480;6.056;2022-07-09T06:28:08;6.60;;;3.75;;
60014;SDS011;45867;52.480;6.056;2022-07-09T06:30:33;6.03;;;3.47;;
60014;SDS011;45867;52.480;6.056;2022-07-09T06:33:02;7.53;;;3.75;;
60014;SDS011;45867;52.480;6.056;2022-07-09T06:35:27;8.38;;;3.42;;
60014;SDS011;45867;52.480;6.056;2022-07-09T06:37:52;7.20;;;3.35;;
60014;SDS011;45867;52.480;6.056;2022-07-09T06:40:18;5.47;;;3.60;;
60014;SDS011;45867;52.480;6.056;2022-07-09T06:42:43;7.63;;;3.53;;
60014;SDS011;45867;52.480;6.056;2022-07-09T06:45:08;6.95;;;3.22;;
60014;SDS011;45867;52.480;6.056;2022-07-09T06:47:34;8.45;;;3.45;;
60014;SDS011;45867;52.480;6.056;2022-07-09T06:49:59;6.80;;;3.22;;
60014;SDS011;45867;52.480;6.056;2022-07-09T06:52:25;7.60;;;3.10;;
60014;SDS011;45867;52.480;6.056;2022-07-09T06:54:50;8.70;;;3.00;;
60014;SDS011;45867;52.480;6.056;2022-07-09T06:57:15;5.10;;;3.28;;
60014;SDS011;45867;52.480;6.056;2022-07-09T06:59:42;7.97;;;3.20;;
60014;SDS011;45867;52.480;6.056;2022-07-09T07:02:07;6.10;;;3.10;;
60014;SDS011;45867;52.480;6.056;2022-07-09T07:04:33;7.18;;;3.40;;
60014;SDS011;45867;52.480;6.056;2022-07-09T07:06:58;6.43;;;3.53;;
60014;SDS011;45867;52.480;6.056;2022-07-09T07:09:23;5.35;;;3.00;;
60014;SDS011;45867;52.480;6.056;2022-07-09T07:11:49;4.75;;;2.65;;
60014;SDS011;45867;52.480;6.056;2022-07-09T07:14:14;5.63;;;2.80;;
60014;SDS011;45867;52.480;6.056;2022-07-09T07:16:40;6.10;;;2.63;;
60014;SDS011;45867;52.480;6.056;2022-07-09T07:19:05;4.70;;;2.40;;
60014;SDS011;45867;52.480;6.056;2022-07-09T07:21:31;6.55;;;2.35;;
60014;SDS011;45867;52.480;6.056;2022-07-09T07:23:56;7.32;;;2.83;;
60014;SDS011;45867;52.480;6.056;2022-07-09T07:26:21;7.45;;;2.80;;
60014;SDS011;45867;52.480;6.056;2022-07-09T07:28:47;5.50;;;2.55;;
60014;SDS011;45867;52.480;6.056;2022-07-09T07:31:14;13.55;;;2.92;;
60014;SDS011;45867;52.480;6.056;2022-07-09T07:33:39;5.57;;;2.65;;
60014;SDS011;45867;52.480;6.056;2022-07-09T07:36:04;5.40;;;2.90;;
60014;SDS011;45867;52.480;6.056;2022-07-09T07:38:36;5.38;;;2.60;;
60014;SDS011;45867;52.480;6.056;2022-07-09T07:41:01;7.45;;;2.63;;
60014;SDS011;45867;52.480;6.056;2022-07-09T07:43:27;6.05;;;2.80;;
60014;SDS011;45867;52.480;6.056;2022-07-09T07:45:52;4.70;;;2.50;;
60014;SDS011;45867;52.480;6.056;2022-07-09T07:48:17;6.22;;;2.88;;
60014;SDS011;45867;52.480;6.056;2022-07-09T07:50:43;4.68;;;2.60;;
60014;SDS011;45867;52.480;6.056;2022-07-09T07:53:08;4.82;;;2.70;;
60014;SDS011;45867;52.480;6.056;2022-07-09T07:55:33;5.97;;;2.42;;
60014;SDS011;45867;52.480;6.056;2022-07-09T07:57:59;3.50;;;2.20;;
60014;SDS011;45867;52.480;6.056;2022-07-09T08:00:24;4.93;;;2.53;;
60014;SDS011;45867;52.480;6.056;2022-07-09T08:02:49;4.60;;;2.60;;
60014;SDS011;45867;52.480;6.056;2022-07-09T08:05:15;4.40;;;2.30;;
60014;SDS011;45867;52.480;6.056;2022-07-09T08:07:40;8.25;;;2.63;;
60014;SDS011;45867;52.480;6.056;2022-07-09T08:10:06;5.03;;;2.80;;
60014;SDS011;45867;52.480;6.056;2022-07-09T08:12:31;9.25;;;2.70;;
60014;SDS011;45867;52.480;6.056;2022-07-09T08:14:56;5.70;;;2.83;;
60014;SDS011;45867;52.480;6.056;2022-07-09T08:17:22;5.10;;;2.60;;
60014;SDS011;45867;52.480;6.056;2022-07-09T08:19:47;6.78;;;2.67;;
60014;SDS011;45867;52.480;6.056;2022-07-09T08:22:13;8.93;;;2.72;;
60014;SDS011;45867;52.480;6.056;2022-07-09T08:24:38;4.13;;;2.60;;
60014;SDS011;45867;52.480;6.056;2022-07-09T08:27:03;7.57;;;2.83;;
60014;SDS011;45867;52.480;6.056;2022-07-09T08:29:29;6.30;;;2.72;;
60014;SDS011;45867;52.480;6.056;2022-07-09T08:31:54;8.55;;;2.63;;
60014;SDS011;45867;52.480;6.056;2022-07-09T08:34:20;12.50;;;2.95;;
60014;SDS011;45867;52.480;6.056;2022-07-09T08:36:45;5.45;;;2.70;;
60014;SDS011;45867;52.480;6.056;2022-07-09T08:39:11;5.57;;;2.80;;
60014;SDS011;45867;52.480;6.056;2022-07-09T08:41:36;6.43;;;2.80;;
60014;SDS011;45867;52.480;6.056;2022-07-09T08:44:02;7.82;;;2.60;;
60014;SDS011;45867;52.480;6.056;2022-07-09T08:46:28;8.45;;;2.50;;
60014;SDS011;45867;52.480;6.056;2022-07-09T08:48:54;9.25;;;2.60;;
60014;SDS011;45867;52.480;6.056;2022-07-09T08:51:19;7.32;;;2.00;;
60014;SDS011;45867;52.480;6.056;2022-07-09T08:53:45;8.63;;;2.35;;
60014;SDS011;45867;52.480;6.056;2022-07-09T08:56:11;3.45;;;2.00;;
60014;SDS011;45867;52.480;6.056;2022-07-09T08:58:39;5.75;;;2.00;;
60014;SDS011;45867;52.480;6.056;2022-07-09T09:01:05;3.90;;;1.90;;
60014;SDS011;45867;52.480;6.056;2022-07-09T09:03:31;4.53;;;1.90;;
60014;SDS011;45867;52.480;6.056;2022-07-09T09:06:01;3.75;;;1.77;;
60014;SDS011;45867;52.480;6.056;2022-07-09T09:08:27;7.30;;;1.90;;
60014;SDS011;45867;52.480;6.056;2022-07-09T09:10:52;4.85;;;1.90;;
60014;SDS011;45867;52.480;6.056;2022-07-09T09:13:17;4.15;;;2.08;;
60014;SDS011;45867;52.480;6.056;2022-07-09T09:15:43;8.98;;;2.00;;
60014;SDS011;45867;52.480;6.056;2022-07-09T09:18:09;4.50;;;1.75;;
60014;SDS011;45867;52.480;6.056;2022-07-09T09:20:34;4.78;;;2.10;;
60014;SDS011;45867;52.480;6.056;2022-07-09T09:23:00;7.57;;;2.00;;
60014;SDS011;45867;52.480;6.056;2022-07-09T09:25:27;3.10;;;1.90;;
60014;SDS011;45867;52.480;6.056;2022-07-09T09:27:53;6.78;;;1.95;;
60014;SDS011;45867;52.480;6.056;2022-07-09T09:30:19;5.45;;;2.30;;
60014;SDS011;45867;52.480;6.056;2022-07-09T09:32:53;4.63;;;1.92;;
60014;SDS011;45867;52.480;6.056;2022-07-09T09:35:18;5.50;;;2.30;;
60014;SDS011;45867;52.480;6.056;2022-07-09T09:37:44;5.88;;;2.10;;
60014;SDS011;45867;52.480;6.056;2022-07-09T09:40:10;10.38;;;2.78;;
60014;SDS011;45867;52.480;6.056;2022-07-09T09:42:38;3.83;;;1.70;;
60014;SDS011;45867;52.480;6.056;2022-07-09T09:45:05;4.70;;;1.80;;
60014;SDS011;45867;52.480;6.056;2022-07-09T09:51:07;3.95;;;1.60;;
60014;SDS011;45867;52.480;6.056;2022-07-09T09:53:34;5.13;;;2.05;;
60014;SDS011;45867;52.480;6.056;2022-07-09T09:55:59;4.78;;;1.85;;
60014;SDS011;45867;52.480;6.056;2022-07-09T09:58:30;4.75;;;1.42;;
60014;SDS011;45867;52.480;6.056;2022-07-09T10:00:56;4.20;;;1.58;;
60014;SDS011;45867;52.480;6.056;2022-07-09T10:03:21;8.65;;;1.92;;
60014;SDS011;45867;52.480;6.056;2022-07-09T10:05:47;5.90;;;1.38;;
60014;SDS011;45867;52.480;6.056;2022-07-09T10:08:13;3.60;;;1.40;;
60014;SDS011;45867;52.480;6.056;2022-07-09T10:10:38;5.60;;;1.40;;
60014;SDS011;45867;52.480;6.056;2022-07-09T10:13:03;6.53;;;1.50;;
60014;SDS011;45867;52.480;6.056;2022-07-09T10:15:31;4.67;;;1.40;;
60014;SDS011;45867;52.480;6.056;2022-07-09T10:17:59;7.75;;;1.50;;
60014;SDS011;45867;52.480;6.056;2022-07-09T10:20:34;8.27;;;1.70;;
60014;SDS011;45867;52.480;6.056;2022-07-09T10:22:59;3.03;;;1.50;;
60014;SDS011;45867;52.480;6.056;2022-07-09T10:25:28;3.10;;;1.25;;
60014;SDS011;45867;52.480;6.056;2022-07-09T10:27:54;3.30;;;1.38;;
60014;SDS011;45867;52.480;6.056;2022-07-09T10:35:38;5.53;;;2.05;;
60014;SDS011;45867;52.480;6.056;2022-07-09T10:38:04;4.15;;;1.80;;
60014;SDS011;45867;52.480;6.056;2022-07-09T10:40:36;4.38;;;1.55;;
60014;SDS011;45867;52.480;6.056;2022-07-09T10:43:03;4.07;;;1.50;;
60014;SDS011;45867;52.480;6.056;2022-07-09T10:45:46;4.13;;;1.65;;
60014;SDS011;45867;52.480;6.056;2022-07-09T10:48:13;8.23;;;1.70;;
60014;SDS011;45867;52.480;6.056;2022-07-09T10:50:40;2.85;;;1.33;;
60014;SDS011;45867;52.480;6.056;2022-07-09T10:53:06;4.13;;;1.25;;
60014;SDS011;45867;52.480;6.056;2022-07-09T10:55:32;5.25;;;1.70;;
60014;SDS011;45867;52.480;6.056;2022-07-09T10:57:57;6.07;;;1.70;;
60014;SDS011;45867;52.480;6.056;2022-07-09T11:00:23;3.65;;;1.25;;
60014;SDS011;45867;52.480;6.056;2022-07-09T11:02:53;4.30;;;1.55;;
60014;SDS011;45867;52.480;6.056;2022-07-09T11:05:18;4.22;;;1.40;;
60014;SDS011;45867;52.480;6.056;2022-07-09T11:07:53;3.38;;;1.45;;
60014;SDS011;45867;52.480;6.056;2022-07-09T11:10:18;6.95;;;1.55;;
60014;SDS011;45867;52.480;6.056;2022-07-09T11:12:47;4.03;;;1.42;;
60014;SDS011;45867;52.480;6.056;2022-07-09T11:15:16;4.35;;;1.55;;
60014;SDS011;45867;52.480;6.056;2022-07-09T11:17:41;4.18;;;1.30;;
60014;SDS011;45867;52.480;6.056;2022-07-09T11:20:06;3.78;;;1.40;;
60014;SDS011;45867;52.480;6.056;2022-07-09T11:22:32;2.72;;;1.40;;
60014;SDS011;45867;52.480;6.056;2022-07-09T11:24:57;5.68;;;1.50;;
60014;SDS011;45867;52.480;6.056;2022-07-09T11:27:22;4.03;;;1.20;;
60014;SDS011;45867;52.480;6.056;2022-07-09T11:29:48;6.93;;;1.83;;
60014;SDS011;45867;52.480;6.056;2022-07-09T11:32:16;4.63;;;1.35;;
60014;SDS011;45867;52.480;6.056;2022-07-09T11:34:49;3.33;;;1.08;;
60014;SDS011;45867;52.480;6.056;2022-07-09T11:37:21;3.30;;;1.20;;
60014;SDS011;45867;52.480;6.056;2022-07-09T11:39:50;5.40;;;1.33;;
60014;SDS011;45867;52.480;6.056;2022-07-09T11:42:19;5.32;;;1.30;;
60014;SDS011;45867;52.480;6.056;2022-07-09T11:44:55;6.85;;;1.38;;
60014;SDS011;45867;52.480;6.056;2022-07-09T11:47:30;2.72;;;1.10;;
60014;SDS011;45867;52.480;6.056;2022-07-09T11:49:56;4.38;;;1.30;;
60014;SDS011;45867;52.480;6.056;2022-07-09T11:52:28;6.00;;;1.70;;
60014;SDS011;45867;52.480;6.056;2022-07-09T11:54:57;7.35;;;1.35;;
60014;SDS011;45867;52.480;6.056;2022-07-09T11:57:23;2.67;;;1.02;;
60014;SDS011;45867;52.480;6.056;2022-07-09T11:59:49;6.38;;;1.52;;
60014;SDS011;45867;52.480;6.056;2022-07-09T12:02:29;6.13;;;1.20;;
60014;SDS011;45867;52.480;6.056;2022-07-09T12:04:55;4.75;;;1.15;;
60014;SDS011;45867;52.480;6.056;2022-07-09T12:07:20;13.95;;;1.30;;
60014;SDS011;45867;52.480;6.056;2022-07-09T12:09:46;3.40;;;1.20;;
60014;SDS011;45867;52.480;6.056;2022-07-09T12:12:11;5.60;;;1.45;;
60014;SDS011;45867;52.480;6.056;2022-07-09T12:14:36;2.30;;;1.33;;
60014;SDS011;45867;52.480;6.056;2022-07-09T12:17:01;3.40;;;1.40;;
60014;SDS011;45867;52.480;6.056;2022-07-09T12:19:27;6.43;;;1.23;;
60014;SDS011;45867;52.480;6.056;2022-07-09T12:21:53;2.87;;;1.27;;
60014;SDS011;45867;52.480;6.056;2022-07-09T12:24:18;3.50;;;1.40;;
60014;SDS011;45867;52.480;6.056;2022-07-09T12:26:43;5.72;;;1.42;;
60014;SDS011;45867;52.480;6.056;2022-07-09T12:29:11;2.43;;;1.10;;
60014;SDS011;45867;52.480;6.056;2022-07-09T12:31:37;9.48;;;1.60;;
60014;SDS011;45867;52.480;6.056;2022-07-09T12:34:09;8.07;;;1.70;;
60014;SDS011;45867;52.480;6.056;2022-07-09T12:36:36;6.85;;;1.95;;
60014;SDS011;45867;52.480;6.056;2022-07-09T12:39:03;10.25;;;1.92;;
60014;SDS011;45867;52.480;6.056;2022-07-09T12:41:29;11.23;;;2.10;;
60014;SDS011;45867;52.480;6.056;2022-07-09T12:43:57;8.30;;;1.97;;
60014;SDS011;45867;52.480;6.056;2022-07-09T12:46:22;5.18;;;1.92;;
60014;SDS011;45867;52.480;6.056;2022-07-09T12:48:48;11.23;;;2.58;;
60014;SDS011;45867;52.480;6.056;2022-07-09T12:51:13;12.50;;;2.97;;
60014;SDS011;45867;52.480;6.056;2022-07-09T12:53:39;10.13;;;2.10;;
60014;SDS011;45867;52.480;6.056;2022-07-09T12:56:04;11.00;;;2.22;;
60014;SDS011;45867;52.480;6.056;2022-07-09T12:58:29;7.72;;;2.30;;
60014;SDS011;45867;52.480;6.056;2022-07-09T13:00:55;12.68;;;2.15;;
60014;SDS011;45867;52.480;6.056;2022-07-09T13:03:20;10.65;;;2.30;;
60014;SDS011;45867;52.480;6.056;2022-07-09T13:05:45;10.65;;;2.53;;
60014;SDS011;45867;52.480;6.056;2022-07-09T13:08:10;15.50;;;2.50;;
60014;SDS011;45867;52.480;6.056;2022-07-09T13:10:38;5.67;;;2.13;;
60014;SDS011;45867;52.480;6.056;2022-07-09T13:13:03;12.55;;;2.25;;
60014;SDS011;45867;52.480;6.056;2022-07-09T13:15:28;6.63;;;2.10;;
60014;SDS011;45867;52.480;6.056;2022-07-09T13:17:54;6.57;;;1.70;;
60014;SDS011;45867;52.480;6.056;2022-07-09T13:20:19;7.47;;;1.92;;
60014;SDS011;45867;52.480;6.056;2022-07-09T13:22:45;7.15;;;1.88;;
60014;SDS011;45867;52.480;6.056;2022-07-09T13:25:10;8.60;;;1.80;;
60014;SDS011;45867;52.480;6.056;2022-07-09T13:27:35;5.85;;;1.80;;
60014;SDS011;45867;52.480;6.056;2022-07-09T13:30:00;5.93;;;1.70;;
60014;SDS011;45867;52.480;6.056;2022-07-09T13:32:35;8.20;;;1.83;;
60014;SDS011;45867;52.480;6.056;2022-07-09T13:35:00;3.88;;;1.50;;
60014;SDS011;45867;52.480;6.056;2022-07-09T13:37:26;4.95;;;1.40;;
60014;SDS011;45867;52.480;6.056;2022-07-09T13:39:51;5.43;;;1.50;;
60014;SDS011;45867;52.480;6.056;2022-07-09T13:45:10;6.57;;;1.60;;
60014;SDS011;45867;52.480;6.056;2022-07-09T13:47:51;4.90;;;1.57;;
60014;SDS011;45867;52.480;6.056;2022-07-09T13:50:16;7.82;;;1.67;;
60014;SDS011;45867;52.480;6.056;2022-07-09T13:52:41;3.77;;;1.57;;
60014;SDS011;45867;52.480;6.056;2022-07-09T13:55:09;8.30;;;2.20;;
60014;SDS011;45867;52.480;6.056;2022-07-09T13:57:34;13.73;;;1.83;;
60014;SDS011;45867;52.480;6.056;2022-07-09T14:00:00;3.88;;;1.30;;
60014;SDS011;45867;52.480;6.056;2022-07-09T14:02:25;8.57;;;1.80;;
60014;SDS011;45867;52.480;6.056;2022-07-09T14:04:50;3.63;;;1.40;;
60014;SDS011;45867;52.480;6.056;2022-07-09T14:07:16;4.82;;;1.70;;
60014;SDS011;45867;52.480;6.056;2022-07-09T14:09:41;8.00;;;1.40;;
60014;SDS011;45867;52.480;6.056;2022-07-09T14:12:07;3.72;;;1.85;;
60014;SDS011;45867;52.480;6.056;2022-07-09T14:14:32;4.63;;;1.60;;
60014;SDS011;45867;52.480;6.056;2022-07-09T14:16:57;7.05;;;1.70;;
60014;SDS011;45867;52.480;6.056;2022-07-09T14:19:23;8.38;;;1.58;;
60014;SDS011;45867;52.480;6.056;2022-07-09T14:21:48;3.03;;;1.33;;
60014;SDS011;45867;52.480;6.056;2022-07-09T14:24:13;5.67;;;1.50;;
60014;SDS011;45867;52.480;6.056;2022-07-09T14:26:39;7.05;;;1.48;;
60014;SDS011;45867;52.480;6.056;2022-07-09T14:29:06;7.25;;;1.70;;
60014;SDS011;45867;52.480;6.056;2022-07-09T14:31:32;4.20;;;1.52;;
60014;SDS011;45867;52.480;6.056;2022-07-09T14:34:07;10.77;;;1.53;;
60014;SDS011;45867;52.480;6.056;2022-07-09T14:36:36;6.28;;;1.42;;
60014;SDS011;45867;52.480;6.056;2022-07-09T14:39:02;3.15;;;1.42;;
60014;SDS011;45867;52.480;6.056;2022-07-09T14:41:28;7.40;;;1.45;;
60014;SDS011;45867;52.480;6.056;2022-07-09T14:43:53;6.20;;;1.48;;
60014;SDS011;45867;52.480;6.056;2022-07-09T14:46:18;8.40;;;1.80;;
60014;SDS011;45867;52.480;6.056;2022-07-09T14:48:44;4.73;;;1.40;;